sensor_id;sensor_type;location;lat;lon;timestamp;P1;P2;P0
61913;PMS5003;50095;53.336;-1.488;2022-08-25T00:02:27;8;8;
61913;PMS5003;50095;53.336;-1.488;2022-08-25T00:04:54;8;8;
61913;PMS5003;50095;53.336;-1.488;2022-08-25T00:07:21;5;5;
61913;PMS5003;50095;53.336;-1.488;2022-08-25T00:09:49;6;6;
61913;PMS5003;50095;53.336;-1.488;2022-08-25T00:12:16;7;7;
61913;PMS5003;50095;53.336;-1.488;2022-08-25T00:14:44;8;8;
61913;PMS5003;50095;53.336;-1.488;2022-08-25T00:17:11;8;8;
61913;PMS5003;50095;53.336;-1.488;2022-08-25T00:19:38;8;7;
61913;PMS5003;50095;53.336;-1.488;2022-08-25T00:22:06;10;8;
61913;PMS5003;50095;53.336;-1.488;2022-08-25T00:24:34;5;5;
61913;PMS5003;50095;53.336;-1.488;2022-08-25T00:27:02;8;8;
61913;PMS5003;50095;53.336;-1.488;2022-08-25T00:29:29;6;6;
61913;PMS5003;50095;53.336;-1.488;2022-08-25T00:31:58;9;9;
61913;PMS5003;50095;53.336;-1.488;2022-08-25T00:34:27;9;9;
61913;PMS5003;50095;53.336;-1.488;2022-08-25T00:36:56;9;9;
61913;PMS5003;50095;53.336;-1.488;2022-08-25T00:39:24;4;4;
61913;PMS5003;50095;53.336;-1.488;2022-08-25T00:41:53;6;6;
61913;PMS5003;50095;53.336;-1.488;2022-08-25T00:44:23;9;9;
61913;PMS5003;50095;53.336;-1.488;2022-08-25T00:46:54;5;5;
61913;PMS5003;50095;53.336;-1.488;2022-08-25T00:49:24;4;4;
61913;PMS5003;50095;53.336;-1.488;2022-08-25T00:52:00;7;7;
61913;PMS5003;50095;53.336;-1.488;2022-08-25T00:54:31;4;4;
61913;PMS5003;50095;53.336;-1.488;2022-08-25T00:57:03;7;7;
61913;PMS5003;50095;53.336;-1.488;2022-08-25T00:59:33;7;7;
61913;PMS5003;50095;53.336;-1.488;2022-08-25T01:02:01;6;6;
61913;PMS5003;50095;53.336;-1.488;2022-08-25T01:04:30;7;7;
61913;PMS5003;50095;53.336;-1.488;2022-08-25T01:06:58;7;7;
61913;PMS5003;50095;53.336;-1.488;2022-08-25T01:09:27;5;5;
61913;PMS5003;50095;53.336;-1.488;2022-08-25T01:11:57;6;6;
61913;PMS5003;50095;53.336;-1.488;2022-08-25T01:14:25;4;4;
61913;PMS5003;50095;53.336;-1.488;2022-08-25T01:16:54;7;6;
61913;PMS5003;50095;53.336;-1.488;2022-08-25T01:19:21;5;5;
61913;PMS5003;50095;53.336;-1.488;2022-08-25T01:21:52;4;4;
61913;PMS5003;50095;53.336;-1.488;2022-08-25T01:24:24;4;4;
61913;PMS5003;50095;53.336;-1.488;2022-08-25T01:26:56;7;6;
61913;PMS5003;50095;53.336;-1.488;2022-08-25T01:29:24;3;3;
61913;PMS5003;50095;53.336;-1.488;2022-08-25T01:31:53;3;3;
61913;PMS5003;50095;53.336;-1.488;2022-08-25T01:34:24;6;5;
61913;PMS5003;50095;53.336;-1.488;2022-08-25T01:36:54;4;4;
61913;PMS5003;50095;53.336;-1.488;2022-08-25T01:39:23;6;6;
61913;PMS5003;50095;53.336;-1.488;2022-08-25T01:41:57;5;5;
61913;PMS5003;50095;53.336;-1.488;2022-08-25T01:44:40;3;3;
61913;PMS5003;50095;53.336;-1.488;2022-08-25T01:47:10;4;3;
61913;PMS5003;50095;53.336;-1.488;2022-08-25T01:49:39;5;5;
61913;PMS5003;50095;53.336;-1.488;2022-08-25T01:52:09;4;4;
61913;PMS5003;50095;53.336;-1.488;2022-08-25T01:54:40;5;5;
61913;PMS5003;50095;53.336;-1.488;2022-08-25T01:57:07;6;6;
61913;PMS5003;50095;53.336;-1.488;2022-08-25T01:59:35;5;5;
61913;PMS5003;50095;53.336;-1.488;2022-08-25T02:02:02;7;6;
61913;PMS5003;50095;53.336;-1.488;2022-08-25T02:04:30;6;6;
61913;PMS5003;50095;53.336;-1.488;2022-08-25T02:06:58;8;8;
61913;PMS5003;50095;53.336;-1.488;2022-08-25T02:09:26;8;7;
61913;PMS5003;50095;53.336;-1.488;2022-08-25T02:11:55;6;6;
61913;PMS5003;50095;53.336;-1.488;2022-08-25T02:14:22;7;7;
61913;PMS5003;50095;53.336;-1.488;2022-08-25T02:16:50;9;8;
61913;PMS5003;50095;53.336;-1.488;2022-08-25T02:19:19;5;5;
61913;PMS5003;50095;53.336;-1.488;2022-08-25T02:21:48;10;9;
61913;PMS5003;50095;53.336;-1.488;2022-08-25T02:24:16;9;9;
61913;PMS5003;50095;53.336;-1.488;2022-08-25T02:26:43;15;10;
61913;PMS5003;50095;53.336;-1.488;2022-08-25T02:29:11;7;7;
61913;PMS5003;50095;53.336;-1.488;2022-08-25T02:31:39;6;6;
61913;PMS5003;50095;53.336;-1.488;2022-08-25T02:34:06;7;6;
61913;PMS5003;50095;53.336;-1.488;2022-08-25T02:36:35;5;5;
61913;PMS5003;50095;53.336;-1.488;2022-08-25T02:39:04;7;7;
61913;PMS5003;50095;53.336;-1.488;2022-08-25T02:41:33;5;5;
61913;PMS5003;50095;53.336;-1.488;2022-08-25T02:44:01;7;7;
61913;PMS5003;50095;53.336;-1.488;2022-08-25T02:46:31;4;4;
61913;PMS5003;50095;53.336;-1.488;2022-08-25T02:48:59;7;7;
61913;PMS5003;50095;53.336;-1.488;2022-08-25T02:51:26;7;7;
61913;PMS5003;50095;53.336;-1.488;2022-08-25T02:53:55;9;9;
61913;PMS5003;50095;53.336;-1.488;2022-08-25T02:56:23;9;9;
61913;PMS5003;50095;53.336;-1.488;2022-08-25T02:58:51;6;6;
61913;PMS5003;50095;53.336;-1.488;2022-08-25T03:01:19;7;7;
61913;PMS5003;50095;53.336;-1.488;2022-08-25T03:03:47;7;7;
61913;PMS5003;50095;53.336;-1.488;2022-08-25T03:06:16;8;8;
61913;PMS5003;50095;53.336;-1.488;2022-08-25T03:08:44;5;5;
61913;PMS5003;50095;53.336;-1.488;2022-08-25T03:11:12;6;6;
61913;PMS5003;50095;53.336;-1.488;2022-08-25T03:13:39;6;6;
61913;PMS5003;50095;53.336;-1.488;2022-08-25T03:16:08;7;7;
61913;PMS5003;50095;53.336;-1.488;2022-08-25T03:18:36;9;7;
61913;PMS5003;50095;53.336;-1.488;2022-08-25T03:21:05;7;7;
61913;PMS5003;50095;53.336;-1.488;2022-08-25T03:23:33;5;5;
61913;PMS5003;50095;53.336;-1.488;2022-08-25T03:26:00;6;6;
61913;PMS5003;50095;53.336;-1.488;2022-08-25T03:28:28;6;6;
61913;PMS5003;50095;53.336;-1.488;2022-08-25T03:30:56;4;4;
61913;PMS5003;50095;53.336;-1.488;2022-08-25T03:33:24;5;5;
61913;PMS5003;50095;53.336;-1.488;2022-08-25T03:35:51;4;4;
61913;PMS5003;50095;53.336;-1.488;2022-08-25T03:38:19;5;5;
61913;PMS5003;50095;53.336;-1.488;2022-08-25T03:40:47;4;4;
61913;PMS5003;50095;53.336;-1.488;2022-08-25T03:43:15;6;5;
61913;PMS5003;50095;53.336;-1.488;2022-08-25T03:45:43;5;5;
61913;PMS5003;50095;53.336;-1.488;2022-08-25T03:48:12;4;4;
61913;PMS5003;50095;53.336;-1.488;2022-08-25T03:50:43;5;5;
61913;PMS5003;50095;53.336;-1.488;2022-08-25T03:53:11;6;6;
61913;PMS5003;50095;53.336;-1.488;2022-08-25T03:55:39;7;7;
61913;PMS5003;50095;53.336;-1.488;2022-08-25T03:58:07;6;6;
61913;PMS5003;50095;53.336;-1.488;2022-08-25T04:00:34;6;6;
61913;PMS5003;50095;53.336;-1.488;2022-08-25T04:03:02;4;4;
61913;PMS5003;50095;53.336;-1.488;2022-08-25T04:05:29;4;4;
61913;PMS5003;50095;53.336;-1.488;2022-08-25T04:07:57;3;3;
61913;PMS5003;50095;53.336;-1.488;2022-08-25T04:10:24;5;5;
61913;PMS5003;50095;53.336;-1.488;2022-08-25T04:12:52;3;3;
61913;PMS5003;50095;53.336;-1.488;2022-08-25T04:15:20;7;7;
61913;PMS5003;50095;53.336;-1.488;2022-08-25T04:17:47;4;4;
61913;PMS5003;50095;53.336;-1.488;2022-08-25T04:20:14;6;5;
61913;PMS5003;50095;53.336;-1.488;2022-08-25T04:22:42;4;4;
61913;PMS5003;50095;53.336;-1.488;2022-08-25T04:25:09;7;7;
61913;PMS5003;50095;53.336;-1.488;2022-08-25T04:27:39;4;4;
61913;PMS5003;50095;53.336;-1.488;2022-08-25T04:30:06;7;7;
61913;PMS5003;50095;53.336;-1.488;2022-08-25T04:32:35;5;4;
61913;PMS5003;50095;53.336;-1.488;2022-08-25T04:35:03;4;4;
61913;PMS5003;50095;53.336;-1.488;2022-08-25T04:37:31;5;5;
61913;PMS5003;50095;53.336;-1.488;2022-08-25T04:39:59;4;4;
61913;PMS5003;50095;53.336;-1.488;2022-08-25T04:42:26;5;5;
61913;PMS5003;50095;53.336;-1.488;2022-08-25T04:44:54;5;5;
61913;PMS5003;50095;53.336;-1.488;2022-08-25T04:47:21;5;5;
61913;PMS5003;50095;53.336;-1.488;2022-08-25T04:49:49;5;5;
61913;PMS5003;50095;53.336;-1.488;2022-08-25T04:52:17;5;5;
61913;PMS5003;50095;53.336;-1.488;2022-08-25T04:54:46;6;6;
61913;PMS5003;50095;53.336;-1.488;2022-08-25T04:57:15;5;5;
61913;PMS5003;50095;53.336;-1.488;2022-08-25T04:59:42;6;6;
61913;PMS5003;50095;53.336;-1.488;2022-08-25T05:02:10;6;6;
61913;PMS5003;50095;53.336;-1.488;2022-08-25T05:04:37;4;4;
61913;PMS5003;50095;53.336;-1.488;2022-08-25T05:07:05;5;5;
61913;PMS5003;50095;53.336;-1.488;2022-08-25T05:09:34;5;5;
61913;PMS5003;50095;53.336;-1.488;2022-08-25T05:12:02;3;3;
61913;PMS5003;50095;53.336;-1.488;2022-08-25T05:14:30;4;4;
61913;PMS5003;50095;53.336;-1.488;2022-08-25T05:16:58;5;5;
61913;PMS5003;50095;53.336;-1.488;2022-08-25T05:19:27;6;5;
61913;PMS5003;50095;53.336;-1.488;2022-08-25T05:21:55;5;4;
61913;PMS5003;50095;53.336;-1.488;2022-08-25T05:24:24;4;3;
61913;PMS5003;50095;53.336;-1.488;2022-08-25T05:26:51;5;4;
61913;PMS5003;50095;53.336;-1.488;2022-08-25T05:29:19;8;7;
61913;PMS5003;50095;53.336;-1.488;2022-08-25T05:31:47;6;6;
61913;PMS5003;50095;53.336;-1.488;2022-08-25T05:34:14;5;5;
61913;PMS5003;50095;53.336;-1.488;2022-08-25T05:36:42;6;6;
61913;PMS5003;50095;53.336;-1.488;2022-08-25T05:39:10;4;4;
61913;PMS5003;50095;53.336;-1.488;2022-08-25T05:41:38;6;6;
61913;PMS5003;50095;53.336;-1.488;2022-08-25T05:44:06;5;5;
61913;PMS5003;50095;53.336;-1.488;2022-08-25T05:46:33;5;4;
61913;PMS5003;50095;53.336;-1.488;2022-08-25T05:49:01;5;5;
61913;PMS5003;50095;53.336;-1.488;2022-08-25T05:51:28;7;6;
61913;PMS5003;50095;53.336;-1.488;2022-08-25T05:53:56;6;6;
61913;PMS5003;50095;53.336;-1.488;2022-08-25T05:56:23;2;2;
61913;PMS5003;50095;53.336;-1.488;2022-08-25T05:58:51;4;4;
61913;PMS5003;50095;53.336;-1.488;2022-08-25T06:01:22;5;5;
61913;PMS5003;50095;53.336;-1.488;2022-08-25T06:03:50;3;3;
61913;PMS5003;50095;53.336;-1.488;2022-08-25T06:06:17;3;3;
61913;PMS5003;50095;53.336;-1.488;2022-08-25T06:08:45;6;5;
61913;PMS5003;50095;53.336;-1.488;2022-08-25T06:11:13;2;2;
61913;PMS5003;50095;53.336;-1.488;2022-08-25T06:13:41;4;4;
61913;PMS5003;50095;53.336;-1.488;2022-08-25T06:16:08;4;4;
61913;PMS5003;50095;53.336;-1.488;2022-08-25T06:18:36;5;4;
61913;PMS5003;50095;53.336;-1.488;2022-08-25T06:21:08;4;4;
61913;PMS5003;50095;53.336;-1.488;2022-08-25T06:23:37;4;4;
61913;PMS5003;50095;53.336;-1.488;2022-08-25T06:26:06;4;4;
61913;PMS5003;50095;53.336;-1.488;2022-08-25T06:28:36;5;5;
61913;PMS5003;50095;53.336;-1.488;2022-08-25T06:31:03;3;3;
61913;PMS5003;50095;53.336;-1.488;2022-08-25T06:33:31;4;3;
61913;PMS5003;50095;53.336;-1.488;2022-08-25T06:35:59;4;4;
61913;PMS5003;50095;53.336;-1.488;2022-08-25T06:38:26;2;2;
61913;PMS5003;50095;53.336;-1.488;2022-08-25T06:40:54;4;4;
61913;PMS5003;50095;53.336;-1.488;2022-08-25T06:43:22;2;1;
61913;PMS5003;50095;53.336;-1.488;2022-08-25T06:45:49;4;3;
61913;PMS5003;50095;53.336;-1.488;2022-08-25T06:48:16;3;3;
61913;PMS5003;50095;53.336;-1.488;2022-08-25T06:50:44;3;3;
61913;PMS5003;50095;53.336;-1.488;2022-08-25T06:53:11;6;5;
61913;PMS5003;50095;53.336;-1.488;2022-08-25T06:55:39;4;4;
61913;PMS5003;50095;53.336;-1.488;2022-08-25T06:58:06;3;3;
61913;PMS5003;50095;53.336;-1.488;2022-08-25T07:00:34;4;3;
61913;PMS5003;50095;53.336;-1.488;2022-08-25T07:03:01;3;3;
61913;PMS5003;50095;53.336;-1.488;2022-08-25T07:05:29;3;2;
61913;PMS5003;50095;53.336;-1.488;2022-08-25T07:07:56;1;1;
61913;PMS5003;50095;53.336;-1.488;2022-08-25T07:10:24;3;3;
61913;PMS5003;50095;53.336;-1.488;2022-08-25T07:12:51;4;4;
61913;PMS5003;50095;53.336;-1.488;2022-08-25T07:15:19;2;2;
61913;PMS5003;50095;53.336;-1.488;2022-08-25T07:17:47;3;3;
61913;PMS5003;50095;53.336;-1.488;2022-08-25T07:20:15;3;3;
61913;PMS5003;50095;53.336;-1.488;2022-08-25T07:22:44;3;3;
61913;PMS5003;50095;53.336;-1.488;2022-08-25T07:25:12;2;2;
61913;PMS5003;50095;53.336;-1.488;2022-08-25T07:27:39;2;2;
61913;PMS5003;50095;53.336;-1.488;2022-08-25T07:30:08;6;6;
61913;PMS5003;50095;53.336;-1.488;2022-08-25T07:32:35;2;2;
61913;PMS5003;50095;53.336;-1.488;2022-08-25T07:35:03;3;3;
61913;PMS5003;50095;53.336;-1.488;2022-08-25T07:37:31;3;3;
61913;PMS5003;50095;53.336;-1.488;2022-08-25T07:40:01;4;4;
61913;PMS5003;50095;53.336;-1.488;2022-08-25T07:42:29;4;2;
61913;PMS5003;50095;53.336;-1.488;2022-08-25T07:44:56;3;3;
61913;PMS5003;50095;53.336;-1.488;2022-08-25T07:47:24;5;5;
61913;PMS5003;50095;53.336;-1.488;2022-08-25T07:49:51;1;1;
61913;PMS5003;50095;53.336;-1.488;2022-08-25T07:52:19;3;2;
61913;PMS5003;50095;53.336;-1.488;2022-08-25T07:54:46;6;4;
61913;PMS5003;50095;53.336;-1.488;2022-08-25T07:57:14;2;2;
61913;PMS5003;50095;53.336;-1.488;2022-08-25T07:59:41;5;4;
61913;PMS5003;50095;53.336;-1.488;2022-08-25T08:02:11;2;2;
61913;PMS5003;50095;53.336;-1.488;2022-08-25T08:04:39;5;4;
61913;PMS5003;50095;53.336;-1.488;2022-08-25T08:07:07;4;4;
61913;PMS5003;50095;53.336;-1.488;2022-08-25T08:09:35;4;4;
61913;PMS5003;50095;53.336;-1.488;2022-08-25T08:12:03;5;3;
61913;PMS5003;50095;53.336;-1.488;2022-08-25T08:14:31;4;4;
61913;PMS5003;50095;53.336;-1.488;2022-08-25T08:16:58;4;4;
61913;PMS5003;50095;53.336;-1.488;2022-08-25T08:19:30;4;3;
61913;PMS5003;50095;53.336;-1.488;2022-08-25T08:21:58;3;3;
61913;PMS5003;50095;53.336;-1.488;2022-08-25T08:24:27;4;4;
61913;PMS5003;50095;53.336;-1.488;2022-08-25T08:26:55;4;3;
61913;PMS5003;50095;53.336;-1.488;2022-08-25T08:29:22;3;3;
61913;PMS5003;50095;53.336;-1.488;2022-08-25T08:31:50;2;2;
61913;PMS5003;50095;53.336;-1.488;2022-08-25T08:34:17;5;4;
61913;PMS5003;50095;53.336;-1.488;2022-08-25T08:36:45;2;2;
61913;PMS5003;50095;53.336;-1.488;2022-08-25T08:39:13;3;3;
61913;PMS5003;50095;53.336;-1.488;2022-08-25T08:41:44;2;2;
61913;PMS5003;50095;53.336;-1.488;2022-08-25T08:44:22;2;2;
61913;PMS5003;50095;53.336;-1.488;2022-08-25T08:46:56;6;4;
61913;PMS5003;50095;53.336;-1.488;2022-08-25T08:49:38;2;2;
61913;PMS5003;50095;53.336;-1.488;2022-08-25T08:52:20;2;2;
61913;PMS5003;50095;53.336;-1.488;2022-08-25T08:54:58;4;4;
61913;PMS5003;50095;53.336;-1.488;2022-08-25T08:57:31;3;3;
61913;PMS5003;50095;53.336;-1.488;2022-08-25T09:00:06;2;2;
61913;PMS5003;50095;53.336;-1.488;2022-08-25T09:02:36;2;2;
61913;PMS5003;50095;53.336;-1.488;2022-08-25T09:05:08;2;2;
61913;PMS5003;50095;53.336;-1.488;2022-08-25T09:07:39;1;1;
61913;PMS5003;50095;53.336;-1.488;2022-08-25T09:10:12;2;2;
61913;PMS5003;50095;53.336;-1.488;2022-08-25T09:12:42;4;2;
61913;PMS5003;50095;53.336;-1.488;2022-08-25T09:15:16;4;2;
61913;PMS5003;50095;53.336;-1.488;2022-08-25T09:17:55;4;4;
61913;PMS5003;50095;53.336;-1.488;2022-08-25T09:20:35;3;3;
61913;PMS5003;50095;53.336;-1.488;2022-08-25T09:23:16;3;3;
61913;PMS5003;50095;53.336;-1.488;2022-08-25T09:25:58;3;3;
61913;PMS5003;50095;53.336;-1.488;2022-08-25T09:28:36;4;2;
61913;PMS5003;50095;53.336;-1.488;2022-08-25T09:31:11;2;2;
61913;PMS5003;50095;53.336;-1.488;2022-08-25T09:33:42;1;1;
61913;PMS5003;50095;53.336;-1.488;2022-08-25T09:36:10;2;2;
61913;PMS5003;50095;53.336;-1.488;2022-08-25T09:38:38;3;3;
61913;PMS5003;50095;53.336;-1.488;2022-08-25T09:41:05;3;3;
61913;PMS5003;50095;53.336;-1.488;2022-08-25T09:43:33;3;1;
61913;PMS5003;50095;53.336;-1.488;2022-08-25T09:46:08;3;3;
61913;PMS5003;50095;53.336;-1.488;2022-08-25T09:48:45;2;2;
61913;PMS5003;50095;53.336;-1.488;2022-08-25T09:51:16;1;1;
61913;PMS5003;50095;53.336;-1.488;2022-08-25T09:53:49;3;3;
61913;PMS5003;50095;53.336;-1.488;2022-08-25T09:56:19;3;3;
61913;PMS5003;50095;53.336;-1.488;2022-08-25T09:58:49;2;2;
61913;PMS5003;50095;53.336;-1.488;2022-08-25T10:01:18;3;3;
61913;PMS5003;50095;53.336;-1.488;2022-08-25T10:03:56;2;2;
61913;PMS5003;50095;53.336;-1.488;2022-08-25T10:06:26;2;1;
61913;PMS5003;50095;53.336;-1.488;2022-08-25T10:08:58;2;2;
61913;PMS5003;50095;53.336;-1.488;2022-08-25T10:11:29;3;2;
61913;PMS5003;50095;53.336;-1.488;2022-08-25T10:14:02;3;3;
61913;PMS5003;50095;53.336;-1.488;2022-08-25T10:16:32;3;2;
61913;PMS5003;50095;53.336;-1.488;2022-08-25T10:19:02;4;2;
61913;PMS5003;50095;53.336;-1.488;2022-08-25T10:21:33;3;3;
61913;PMS5003;50095;53.336;-1.488;2022-08-25T10:24:03;2;2;
61913;PMS5003;50095;53.336;-1.488;2022-08-25T10:26:33;0;0;
61913;PMS5003;50095;53.336;-1.488;2022-08-25T10:29:15;3;3;
61913;PMS5003;50095;53.336;-1.488;2022-08-25T10:31:51;3;3;
61913;PMS5003;50095;53.336;-1.488;2022-08-25T10:34:27;3;2;
61913;PMS5003;50095;53.336;-1.488;2022-08-25T10:37:09;2;2;
61913;PMS5003;50095;53.336;-1.488;2022-08-25T10:39:44;2;2;
61913;PMS5003;50095;53.336;-1.488;2022-08-25T10:42:25;4;4;
61913;PMS5003;50095;53.336;-1.488;2022-08-25T10:45:02;3;3;
61913;PMS5003;50095;53.336;-1.488;2022-08-25T10:47:43;2;2;
61913;PMS5003;50095;53.336;-1.488;2022-08-25T10:50:26;2;2;
61913;PMS5003;50095;53.336;-1.488;2022-08-25T10:53:02;3;1;
61913;PMS5003;50095;53.336;-1.488;2022-08-25T10:55:47;3;3;
61913;PMS5003;50095;53.336;-1.488;2022-08-25T10:58:22;2;2;
61913;PMS5003;50095;53.336;-1.488;2022-08-25T11:01:00;3;3;
61913;PMS5003;50095;53.336;-1.488;2022-08-25T11:03:37;1;1;
61913;PMS5003;50095;53.336;-1.488;2022-08-25T11:06:12;3;3;
61913;PMS5003;50095;53.336;-1.488;2022-08-25T11:08:45;2;2;
61913;PMS5003;50095;53.336;-1.488;2022-08-25T11:11:18;0;0;
61913;PMS5003;50095;53.336;-1.488;2022-08-25T11:13:53;5;4;
61913;PMS5003;50095;53.336;-1.488;2022-08-25T11:16:27;3;3;
61913;PMS5003;50095;53.336;-1.488;2022-08-25T11:19:06;3;3;
61913;PMS5003;50095;53.336;-1.488;2022-08-25T11:21:43;3;2;
61913;PMS5003;50095;53.336;-1.488;2022-08-25T11:24:25;3;3;
61913;PMS5003;50095;53.336;-1.488;2022-08-25T11:26:58;6;6;
61913;PMS5003;50095;53.336;-1.488;2022-08-25T11:29:30;8;8;
61913;PMS5003;50095;53.336;-1.488;2022-08-25T11:32:02;8;7;
61913;PMS5003;50095;53.336;-1.488;2022-08-25T11:34:31;8;8;
61913;PMS5003;50095;53.336;-1.488;2022-08-25T11:37:02;8;8;
61913;PMS5003;50095;53.336;-1.488;2022-08-25T11:39:44;10;9;
61913;PMS5003;50095;53.336;-1.488;2022-08-25T11:42:35;6;6;
61913;PMS5003;50095;53.336;-1.488;2022-08-25T11:45:15;7;7;
61913;PMS5003;50095;53.336;-1.488;2022-08-25T11:48:00;8;7;
61913;PMS5003;50095;53.336;-1.488;2022-08-25T11:50:53;6;6;
61913;PMS5003;50095;53.336;-1.488;2022-08-25T11:53:24;6;6;
61913;PMS5003;50095;53.336;-1.488;2022-08-25T11:55:54;6;6;
61913;PMS5003;50095;53.336;-1.488;2022-08-25T11:58:28;5;5;
61913;PMS5003;50095;53.336;-1.488;2022-08-25T12:00:59;6;6;
61913;PMS5003;50095;53.336;-1.488;2022-08-25T12:03:45;9;7;
61913;PMS5003;50095;53.336;-1.488;2022-08-25T12:06:18;4;4;
61913;PMS5003;50095;53.336;-1.488;2022-08-25T12:08:52;4;4;
61913;PMS5003;50095;53.336;-1.488;2022-08-25T12:11:53;7;6;
61913;PMS5003;50095;53.336;-1.488;2022-08-25T12:14:41;5;5;
61913;PMS5003;50095;53.336;-1.488;2022-08-25T12:17:26;6;5;
61913;PMS5003;50095;53.336;-1.488;2022-08-25T12:20:04;8;8;
61913;PMS5003;50095;53.336;-1.488;2022-08-25T12:22:41;7;6;
61913;PMS5003;50095;53.336;-1.488;2022-08-25T12:25:25;9;8;
61913;PMS5003;50095;53.336;-1.488;2022-08-25T12:28:19;6;6;
61913;PMS5003;50095;53.336;-1.488;2022-08-25T12:31:03;7;6;
61913;PMS5003;50095;53.336;-1.488;2022-08-25T12:33:38;7;6;
61913;PMS5003;50095;53.336;-1.488;2022-08-25T12:36:24;6;6;
61913;PMS5003;50095;53.336;-1.488;2022-08-25T12:38:54;5;5;
61913;PMS5003;50095;53.336;-1.488;2022-08-25T12:41:50;6;5;
61913;PMS5003;50095;53.336;-1.488;2022-08-25T12:44:33;5;5;
61913;PMS5003;50095;53.336;-1.488;2022-08-25T12:47:06;6;6;
61913;PMS5003;50095;53.336;-1.488;2022-08-25T12:49:39;7;7;
61913;PMS5003;50095;53.336;-1.488;2022-08-25T12:52:06;5;4;
61913;PMS5003;50095;53.336;-1.488;2022-08-25T12:54:45;6;6;
61913;PMS5003;50095;53.336;-1.488;2022-08-25T12:57:39;6;6;
61913;PMS5003;50095;53.336;-1.488;2022-08-25T13:00:13;6;6;
61913;PMS5003;50095;53.336;-1.488;2022-08-25T13:02:50;6;6;
61913;PMS5003;50095;53.336;-1.488;2022-08-25T13:05:46;4;4;
61913;PMS5003;50095;53.336;-1.488;2022-08-25T13:08:40;5;5;
61913;PMS5003;50095;53.336;-1.488;2022-08-25T13:11:31;6;6;
61913;PMS5003;50095;53.336;-1.488;2022-08-25T13:14:06;5;5;
61913;PMS5003;50095;53.336;-1.488;2022-08-25T13:16:50;3;3;
61913;PMS5003;50095;53.336;-1.488;2022-08-25T13:19:19;5;5;
61913;PMS5003;50095;53.336;-1.488;2022-08-25T13:21:47;5;5;
61913;PMS5003;50095;53.336;-1.488;2022-08-25T13:24:17;6;6;
61913;PMS5003;50095;53.336;-1.488;2022-08-25T13:26:49;5;5;
61913;PMS5003;50095;53.336;-1.488;2022-08-25T13:29:20;4;4;
61913;PMS5003;50095;53.336;-1.488;2022-08-25T13:31:50;5;4;
61913;PMS5003;50095;53.336;-1.488;2022-08-25T13:34:21;5;5;
61913;PMS5003;50095;53.336;-1.488;2022-08-25T13:36:51;4;4;
61913;PMS5003;50095;53.336;-1.488;2022-08-25T13:39:19;4;4;
61913;PMS5003;50095;53.336;-1.488;2022-08-25T13:41:48;5;5;
61913;PMS5003;50095;53.336;-1.488;2022-08-25T13:44:20;4;4;
61913;PMS5003;50095;53.336;-1.488;2022-08-25T13:47:03;4;4;
61913;PMS5003;50095;53.336;-1.488;2022-08-25T13:49:31;5;5;
61913;PMS5003;50095;53.336;-1.488;2022-08-25T13:51:59;6;5;
61913;PMS5003;50095;53.336;-1.488;2022-08-25T13:54:28;4;4;
61913;PMS5003;50095;53.336;-1.488;2022-08-25T13:57:03;4;3;
61913;PMS5003;50095;53.336;-1.488;2022-08-25T13:59:33;5;5;
61913;PMS5003;50095;53.336;-1.488;2022-08-25T14:02:05;5;5;
61913;PMS5003;50095;53.336;-1.488;2022-08-25T14:04:43;3;3;
61913;PMS5003;50095;53.336;-1.488;2022-08-25T14:07:22;5;5;
61913;PMS5003;50095;53.336;-1.488;2022-08-25T14:09:54;4;4;
61913;PMS5003;50095;53.336;-1.488;2022-08-25T14:12:25;3;3;
61913;PMS5003;50095;53.336;-1.488;2022-08-25T14:15:04;3;3;
61913;PMS5003;50095;53.336;-1.488;2022-08-25T14:17:36;8;6;
61913;PMS5003;50095;53.336;-1.488;2022-08-25T14:20:14;5;5;
61913;PMS5003;50095;53.336;-1.488;2022-08-25T14:22:44;3;3;
61913;PMS5003;50095;53.336;-1.488;2022-08-25T14:25:11;4;4;
61913;PMS5003;50095;53.336;-1.488;2022-08-25T14:27:40;4;4;
61913;PMS5003;50095;53.336;-1.488;2022-08-25T14:30:08;6;5;
61913;PMS5003;50095;53.336;-1.488;2022-08-25T14:32:38;4;4;
61913;PMS5003;50095;53.336;-1.488;2022-08-25T14:35:05;4;4;
61913;PMS5003;50095;53.336;-1.488;2022-08-25T14:37:33;3;3;
61913;PMS5003;50095;53.336;-1.488;2022-08-25T14:40:01;4;4;
61913;PMS5003;50095;53.336;-1.488;2022-08-25T14:42:30;4;4;
61913;PMS5003;50095;53.336;-1.488;2022-08-25T14:44:57;3;3;
61913;PMS5003;50095;53.336;-1.488;2022-08-25T14:47:24;3;3;
61913;PMS5003;50095;53.336;-1.488;2022-08-25T14:49:52;4;4;
61913;PMS5003;50095;53.336;-1.488;2022-08-25T14:52:20;3;3;
61913;PMS5003;50095;53.336;-1.488;2022-08-25T14:54:52;1;1;
61913;PMS5003;50095;53.336;-1.488;2022-08-25T14:57:19;6;5;
61913;PMS5003;50095;53.336;-1.488;2022-08-25T14:59:47;3;3;
61913;PMS5003;50095;53.336;-1.488;2022-08-25T15:02:15;4;3;
61913;PMS5003;50095;53.336;-1.488;2022-08-25T15:04:44;5;5;
61913;PMS5003;50095;53.336;-1.488;2022-08-25T15:07:16;3;3;
61913;PMS5003;50095;53.336;-1.488;2022-08-25T15:09:44;2;2;
61913;PMS5003;50095;53.336;-1.488;2022-08-25T15:12:11;4;4;
61913;PMS5003;50095;53.336;-1.488;2022-08-25T15:14:38;4;4;
61913;PMS5003;50095;53.336;-1.488;2022-08-25T15:17:06;5;5;
61913;PMS5003;50095;53.336;-1.488;2022-08-25T15:19:33;5;4;
61913;PMS5003;50095;53.336;-1.488;2022-08-25T15:22:01;3;3;
61913;PMS5003;50095;53.336;-1.488;2022-08-25T15:24:29;4;3;
61913;PMS5003;50095;53.336;-1.488;2022-08-25T15:26:57;4;4;
61913;PMS5003;50095;53.336;-1.488;2022-08-25T15:29:26;3;3;
61913;PMS5003;50095;53.336;-1.488;2022-08-25T15:31:55;4;4;
61913;PMS5003;50095;53.336;-1.488;2022-08-25T15:34:25;3;3;
61913;PMS5003;50095;53.336;-1.488;2022-08-25T15:36:52;3;3;
61913;PMS5003;50095;53.336;-1.488;2022-08-25T15:39:19;3;3;
61913;PMS5003;50095;53.336;-1.488;2022-08-25T15:41:47;2;2;
61913;PMS5003;50095;53.336;-1.488;2022-08-25T15:44:14;4;3;
61913;PMS5003;50095;53.336;-1.488;2022-08-25T15:46:42;3;3;
61913;PMS5003;50095;53.336;-1.488;2022-08-25T15:49:09;4;4;
61913;PMS5003;50095;53.336;-1.488;2022-08-25T15:51:37;4;4;
61913;PMS5003;50095;53.336;-1.488;2022-08-25T15:54:05;3;3;
61913;PMS5003;50095;53.336;-1.488;2022-08-25T15:56:32;3;3;
61913;PMS5003;50095;53.336;-1.488;2022-08-25T15:59:01;3;3;
61913;PMS5003;50095;53.336;-1.488;2022-08-25T16:01:31;4;4;
61913;PMS5003;50095;53.336;-1.488;2022-08-25T16:03:59;3;3;
61913;PMS5003;50095;53.336;-1.488;2022-08-25T16:06:26;4;4;
61913;PMS5003;50095;53.336;-1.488;2022-08-25T16:08:54;5;5;
61913;PMS5003;50095;53.336;-1.488;2022-08-25T16:11:22;5;5;
61913;PMS5003;50095;53.336;-1.488;2022-08-25T16:13:55;4;4;
61913;PMS5003;50095;53.336;-1.488;2022-08-25T16:16:24;4;4;
61913;PMS5003;50095;53.336;-1.488;2022-08-25T16:18:53;5;5;
61913;PMS5003;50095;53.336;-1.488;2022-08-25T16:21:23;4;4;
61913;PMS5003;50095;53.336;-1.488;2022-08-25T16:23:52;3;3;
61913;PMS5003;50095;53.336;-1.488;2022-08-25T16:26:20;5;4;
61913;PMS5003;50095;53.336;-1.488;2022-08-25T16:28:47;4;4;
61913;PMS5003;50095;53.336;-1.488;2022-08-25T16:31:15;4;4;
61913;PMS5003;50095;53.336;-1.488;2022-08-25T16:33:43;5;5;
61913;PMS5003;50095;53.336;-1.488;2022-08-25T16:36:12;3;3;
61913;PMS5003;50095;53.336;-1.488;2022-08-25T16:38:41;2;2;
61913;PMS5003;50095;53.336;-1.488;2022-08-25T16:41:10;7;7;
61913;PMS5003;50095;53.336;-1.488;2022-08-25T16:43:40;3;3;
61913;PMS5003;50095;53.336;-1.488;2022-08-25T16:46:09;4;4;
61913;PMS5003;50095;53.336;-1.488;2022-08-25T16:48:38;4;4;
61913;PMS5003;50095;53.336;-1.488;2022-08-25T16:51:08;6;5;
61913;PMS5003;50095;53.336;-1.488;2022-08-25T16:53:36;5;5;
61913;PMS5003;50095;53.336;-1.488;2022-08-25T16:56:04;3;3;
61913;PMS5003;50095;53.336;-1.488;2022-08-25T16:58:33;3;3;